AirNav   Everest Fuels
 
 1235 users online  

NH61 New Poverty Flats Airport
Chester, New Hampshire, USA

GOING TO CHESTER?


FAA INFORMATION EFFECTIVE 10 SEPTEMBER 2020

Location

FAA Identifier: NH61
Lat/Long: 42-58-02.9100N 071-10-52.2190W
42-58.048500N 071-10.870317W
42.9674750,-71.1811719
(estimated)
Elevation: 188 ft. / 57 m (estimated)
Variation: 16W (1985)
From city: 4 miles NE of CHESTER, NH
Time zone: UTC -4 (UTC -5 during Standard Time)
Zip code: 03036

Airport Operations

Airport use: Private use. Permission required prior to landing
Activation date: 01/1991
Control tower: no
ARTCC: BOSTON CENTER
FSS: BANGOR FLIGHT SERVICE STATION
Attendance: UNATNDD
Wind indicator: yes
Segmented circle: no
Lights: SS-SR

Airport Communications

WX ASOS at MHT (11 nm W): 119.55 (603-621-1766)
WX ASOS at LWM (15 nm S): PHONE 978-687-8017
WX AWOS-3PT at ASH (18 nm SW): 125.1 (603-578-0473)
WX ASOS at CON (20 nm NW): 132.325 (603-224-6558)

Nearby radio navigation aids

VOR radial/distance  VOR name  Freq  Var
MHTr069/10.2MANCHESTER VOR/DME114.4015W
LWMr359/14.1LAWRENCE VOR/DME112.5015W
PSMr261/16.8PEASE VOR/DME116.5016W
CONr146/23.0CONCORD VOR/DME112.9015W
ENEr239/37.0KENNEBUNK VOR/DME117.1017W
BOSr003/37.6BOSTON VOR/DME112.7016W

 
NDB name  Hdg/Dist  Freq  Var  ID
EPSOM143/15.021616WCO -.-. ---
ROLLINS242/21.726016WESG . ... --.

Airport Services

Runway Information

Runway 11/29

Dimensions: 1740 x 28 ft. / 530 x 9 m
Surface: turf
ROLLING SURFACE.
Runway edge lights: low intensity
Runway edge markings: MKD WITH ORANGE HOMER BUCKETS. WINGSPAN CLEARANCE ASSURED ONLY WHEN WHEELS REMAIN ON RWY SIDE OF EDGE MARKERS.
RUNWAY 11  RUNWAY 29
Traffic pattern: rightleft
Displaced threshold: 700 ft.no
Obstructions: 70 ft. trees, 1000 ft. from runway100 ft. trees, 50 ft. from runway

Airport Ownership and Management from official FAA records

Ownership: Privately-owned
Owner: MICHAEL H. HEATON
660 FREMONT RD.
CHESTER, NH 03036
Phone 603-887-3272
Manager: MICHAEL H. HEATON
660 FREMONT RD.
CHESTER, NH 03036
Phone 603-887-3272

Airport Operational Statistics

Aircraft based on the field: 2
Single engine airplanes: 2
    

Additional Remarks

PRIOR PERMISSION REQUIRED.
RY 11 IS UNUSABLE FOR LANDING DUE TO OBSTRUCTIONS AND OBSTRUCTED VIEW.
SEE WING CAMERA LANDING VIDEO AT HTTPS://DB.TT/HCGCEPPM.
TRANSIENT PARKING IS SOUTH SIDE OPPOSITE WINDSOCK, ALSO NORTH SIDE, EAST OF WINDSOCK.
FOR CD CTC BOSTON APCH AT 603-594-5551.

Instrument Procedures

There are no published instrument procedures at NH61.

Some nearby airports with instrument procedures:

KMHT - Manchester Airport (11 nm W)
KLWM - Lawrence Municipal Airport (15 nm S)
KPSM - Portsmouth International Airport at Pease (17 nm NE)
KASH - Boire Field Airport (18 nm SW)
KCON - Concord Municipal Airport (20 nm NW)
 
Loc | Ops | Rwys | IFR | FBO | Links
Com | Nav | Svcs | Stats | Notes
Area around NH61 (New Poverty Flats Airport)
 
Road maps at: MapQuest Bing Google
 
Aerial photo
WARNING: Photo may not be current or correct
Aerial photo of NH61 (New Poverty Flats Airport)
Photo by Mike Heaton
Photo taken 01-Jul-2016

Do you have a better or more recent aerial photo of New Poverty Flats Airport that you would like to share? If so, please send us your photo.

 
Sectional chart

 
Airport distance calculator
Flying to New Poverty Flats Airport? Find the distance to fly.

From to NH61

Sunrise and sunset
Times for 19-Sep-2020
 Local
(UTC-4)
 Zulu
(UTC)
Morning civil twilight06:0210:02
Sunrise06:3110:31
Sunset18:4622:46
Evening civil twilight19:1423:14

Current date and time
Zulu (UTC)  19-Sep-2020 19:46:12
Local (UTC-4)  19-Sep-2020 15:46:12
 
METAR
KMHT 
11nm W 
191853Z 34007KT 270V360 10SM CLR 17/M04 A3028 RMK AO2 SLP266 T01721044
KLWM 
15nm S 
191854Z 29005KT 10SM CLR 16/M01 A3030 RMK AO2 SLP262 T01611011
KPSM 
17nm E 
191856Z 06005KT 10SM CLR 17/M07 A3027 RMK AO2A SLP253 T01681070
KASH 
19nm SW 
191856Z VRB04G14KT 10SM CLR 16/M03 A3029 RMK AO2 SLP264 T01611028
KCON 
20nm NW 
191851Z AUTO 34011KT 10SM CLR 17/M04 A3029 RMK AO2 SLP260 T01671044
KDAW 
22nm NE 
191851Z AUTO 32006KT 10SM CLR 17/M04 A3028 RMK AO2 SLP251 T01671044
TAF
KMHT 
11nm W 
191720Z 1918/2018 35009KT P6SM FEW070 FM192300 35004KT P6SM SKC FM201500 01011G18KT P6SM SKC
KPSM 
17nm E 
191720Z 1918/2018 36009KT P6SM FEW030 FM192200 34007KT P6SM SKC FM201200 01009KT P6SM FEW250 FM201500 02013G20KT P6SM FEW250
KCON 
20nm NW 
191720Z 1918/2018 02009KT P6SM SKC FM192300 00000KT P6SM SKC FM201200 35004KT P6SM SKC FM201500 36010G16KT P6SM SKC
NOTAMs
Click for the latest NOTAMs
NOTAMs are issued by the DoD/FAA and will open in a separate window not controlled by AirNav.

 

 
 

Would you like to see your business listed on this page?

 If your business provides an interesting product or service to pilots, flight crews, aircraft, or users of the New Poverty Flats Airport, you should consider listing it here.  To start the listing process, click on the button below
 
Add a business
 

Other Pages about New Poverty Flats Airport

Update a link
 
Copyright © AirNav, LLC. All rights reserved. Privacy Policy  Contact